Time;durP1;ratioP1;P1;durP2;ratioP2;P2;SDS_P1;SDS_P2;PMS_P1;PMS_P2;Temp;Humidity;BMP_temperature;BMP_pressure;BME280_temperature;BME280_humidity;BME280_pressure;Samples;Min_cycle;Max_cycle;Signal;HPM_P1;HPM_P2
2021/12/20 07:24:00;;;;;;;12.05;6.28;;;;;;;;;;4999633;23;20083;-64
2021/12/20 07:26:26;;;;;;;15.68;7.05;;;;;;;;;;4919068;29;20531;-64
2021/12/20 07:28:55;;;;;;;14.20;6.82;;;;;;;;;;4920511;29;20031;-62
2021/12/20 07:31:21;;;;;;;12.63;6.45;;;;;;;;;;4920881;29;20024;-64
2021/12/20 07:33:48;;;;;;;13.73;6.45;;;;;;;;;;4920811;29;20050;-64
2021/12/20 07:36:15;;;;;;;11.40;6.43;;;;;;;;;;4920579;29;20059;-63
2021/12/20 07:38:42;;;;;;;11.07;6.05;;;;;;;;;;4920611;29;20024;-64
2021/12/20 07:41:08;;;;;;;11.02;5.90;;;;;;;;;;4920262;29;20079;-64
2021/12/20 07:43:34;;;;;;;12.15;6.13;;;;;;;;;;4920660;29;20032;-63
2021/12/20 07:46:00;;;;;;;10.13;5.90;;;;;;;;;;4920870;29;20028;-63
2021/12/20 07:48:26;;;;;;;10.48;5.95;;;;;;;;;;4920644;29;20032;-63
2021/12/20 07:50:55;;;;;;;11.98;6.72;;;;;;;;;;4920666;29;20028;-64
2021/12/20 07:53:21;;;;;;;9.95;6.10;;;;;;;;;;4920376;29;20032;-63
2021/12/20 07:55:47;;;;;;;10.95;6.50;;;;;;;;;;4920780;29;20047;-63
2021/12/20 07:58:13;;;;;;;18.15;8.85;;;;;;;;;;4918448;29;20599;-63
2021/12/20 08:00:39;;;;;;;12.05;7.00;;;;;;;;;;4920245;29;20147;-62
2021/12/20 08:03:05;;;;;;;14.88;7.68;;;;;;;;;;4919172;29;20629;-61
2021/12/20 08:05:32;;;;;;;16.38;8.30;;;;;;;;;;4920361;29;20072;-60
2021/12/20 08:07:59;;;;;;;17.33;8.50;;;;;;;;;;4920240;29;20030;-60
2021/12/20 08:10:26;;;;;;;18.48;9.10;;;;;;;;;;4918462;29;20036;-60
2021/12/20 08:12:52;;;;;;;22.52;10.52;;;;;;;;;;4917297;29;20048;-59
2021/12/20 08:15:19;;;;;;;22.40;10.48;;;;;;;;;;4917934;29;20036;-60
2021/12/20 08:17:45;;;;;;;32.25;13.75;;;;;;;;;;4917262;29;20492;-59
2021/12/20 08:20:12;;;;;;;25.33;12.80;;;;;;;;;;4917307;29;20502;-59
2021/12/20 08:22:39;;;;;;;24.60;12.02;;;;;;;;;;4916680;29;20062;-62
2021/12/20 08:25:05;;;;;;;20.75;9.68;;;;;;;;;;4917230;29;20060;-60
2021/12/20 08:27:32;;;;;;;24.27;10.85;;;;;;;;;;4917054;29;20028;-61
2021/12/20 08:29:58;;;;;;;25.08;12.32;;;;;;;;;;4916868;29;20036;-59
2021/12/20 08:32:24;;;;;;;18.48;9.43;;;;;;;;;;4917221;29;20062;-60
2021/12/20 08:34:50;;;;;;;18.63;9.30;;;;;;;;;;4915936;29;20377;-61
2021/12/20 08:37:16;;;;;;;13.15;7.53;;;;;;;;;;4917006;29;20437;-59
2021/12/20 08:39:42;;;;;;;15.80;8.00;;;;;;;;;;4917023;29;20056;-59
2021/12/20 08:42:08;;;;;;;15.60;8.05;;;;;;;;;;4917098;29;20064;-59
2021/12/20 08:44:38;;;;;;;13.77;7.35;;;;;;;;;;4917012;29;20028;-59
2021/12/20 08:47:04;;;;;;;13.32;7.47;;;;;;;;;;4917043;29;20020;-60
2021/12/20 08:49:30;;;;;;;14.27;7.68;;;;;;;;;;4910968;29;20043;-59
2021/12/20 08:52:00;;;;;;;15.60;7.50;;;;;;;;;;4896206;29;20452;-60
2021/12/20 08:54:30;;;;;;;13.15;7.47;;;;;;;;;;4897767;29;20049;-60
2021/12/20 08:56:57;;;;;;;14.60;7.32;;;;;;;;;;4897816;29;20032;-60
2021/12/20 08:59:23;;;;;;;13.40;7.70;;;;;;;;;;4897387;29;20021;-60
2021/12/20 09:01:49;;;;;;;16.10;9.15;;;;;;;;;;4897497;29;20536;-60
2021/12/20 09:04:18;;;;;;;24.95;14.25;;;;;;;;;;4897529;29;20517;-59
2021/12/20 09:06:44;;;;;;;15.65;8.90;;;;;;;;;;4897636;29;20036;-60
2021/12/20 09:09:11;;;;;;;12.93;7.47;;;;;;;;;;4897170;29;20029;-60
2021/12/20 09:11:38;;;;;;;15.25;6.90;;;;;;;;;;4896036;29;20509;-60
2021/12/20 09:14:04;;;;;;;18.73;8.52;;;;;;;;;;4897281;29;20043;-62
2021/12/20 09:16:30;;;;;;;32.90;11.55;;;;;;;;;;4897559;29;20517;-62
2021/12/20 09:18:57;;;;;;;19.95;8.93;;;;;;;;;;4897538;29;20039;-60
2021/12/20 09:21:23;;;;;;;22.00;8.45;;;;;;;;;;4896100;29;20035;-63
2021/12/20 09:23:49;;;;;;;16.30;7.10;;;;;;;;;;4897062;29;20057;-62
2021/12/20 09:26:15;;;;;;;17.33;8.20;;;;;;;;;;4897228;29;20113;-61
2021/12/20 09:28:42;;;;;;;13.15;5.15;;;;;;;;;;4897415;29;20465;-62
2021/12/20 09:31:08;;;;;;;10.90;4.88;;;;;;;;;;4897509;29;20036;-62
2021/12/20 09:33:35;;;;;;;10.50;5.63;;;;;;;;;;4897237;29;20024;-62
2021/12/20 09:36:01;;;;;;;7.95;3.90;;;;;;;;;;4897016;29;20052;-61
2021/12/20 09:38:30;;;;;;;10.80;4.32;;;;;;;;;;4897011;29;20063;-62
2021/12/20 09:43:41;;;;;;;37.28;20.00;;;;;;;;;;4897071;29;20484;-64
2021/12/20 09:46:07;;;;;;;65.47;29.38;;;;;;;;;;4896759;29;20031;-64
2021/12/20 09:48:37;;;;;;;74.15;32.28;;;;;;;;;;4895613;29;20043;-64
2021/12/20 09:51:04;;;;;;;56.05;25.88;;;;;;;;;;4896077;29;20028;-61
2021/12/20 09:53:31;;;;;;;10.27;5.97;;;;;;;;;;4896383;29;20473;-62
2021/12/20 09:55:57;;;;;;;6.55;3.10;;;;;;;;;;4896495;29;20040;-63
2021/12/20 09:58:24;;;;;;;6.57;3.70;;;;;;;;;;4896207;29;20024;-61
2021/12/20 10:00:51;;;;;;;8.13;3.67;;;;;;;;;;4896608;29;20413;-62
2021/12/20 10:03:24;;;;;;;13.00;6.57;;;;;;;;;;4896537;29;20036;-63
2021/12/20 10:05:54;;;;;;;12.98;7.55;;;;;;;;;;4896360;29;20031;-63
2021/12/20 10:08:26;;;;;;;9.73;3.95;;;;;;;;;;4896430;29;20500;-64
2021/12/20 10:10:53;;;;;;;6.88;3.50;;;;;;;;;;4896207;29;20497;-62
2021/12/20 10:13:24;;;;;;;4.82;2.80;;;;;;;;;;4896052;29;20036;-63
2021/12/20 10:15:50;;;;;;;9.77;3.95;;;;;;;;;;4894485;29;20041;-63
2021/12/20 10:18:16;;;;;;;10.75;3.78;;;;;;;;;;4895088;29;20025;-63
2021/12/20 10:20:48;;;;;;;4.60;2.80;;;;;;;;;;4896131;29;20476;-62
2021/12/20 10:23:17;;;;;;;14.00;6.80;;;;;;;;;;4895162;29;20057;-64
2021/12/20 10:25:44;;;;;;;17.63;9.00;;;;;;;;;;4896254;29;20024;-64
2021/12/20 10:28:12;;;;;;;17.10;9.50;;;;;;;;;;4895613;29;20145;-62
2021/12/20 10:30:40;;;;;;;10.75;4.68;;;;;;;;;;4895899;29;20119;-61
2021/12/20 10:33:08;;;;;;;10.00;4.45;;;;;;;;;;4895375;29;20096;-62
2021/12/20 10:35:39;;;;;;;7.20;3.33;;;;;;;;;;4895801;29;20516;-61
2021/12/20 10:38:07;;;;;;;11.52;5.70;;;;;;;;;;4895733;29;20490;-63
2021/12/20 10:40:35;;;;;;;67.38;26.98;;;;;;;;;;4895790;29;20039;-59
2021/12/20 10:43:06;;;;;;;102.80;36.88;;;;;;;;;;4894143;29;20029;-64
2021/12/20 10:45:32;;;;;;;40.58;15.88;;;;;;;;;;4895826;29;20084;-64
2021/12/20 10:48:08;;;;;;;96.82;34.60;;;;;;;;;;4895969;29;20548;-62
2021/12/20 10:50:42;;;;;;;34.88;13.00;;;;;;;;;;4895711;29;20021;-62
2021/12/20 10:53:17;;;;;;;80.55;29.60;;;;;;;;;;4895730;29;20044;-62
2021/12/20 10:55:43;;;;;;;18.27;7.57;;;;;;;;;;4895077;29;20048;-63
2021/12/20 10:58:29;;;;;;;13.38;6.13;;;;;;;;;;4895862;29;20029;-64
2021/12/20 11:01:18;;;;;;;13.30;5.53;;;;;;;;;;4895754;29;20035;-64
2021/12/20 11:03:53;;;;;;;11.93;5.45;;;;;;;;;;4895823;29;20032;-62
2021/12/20 11:09:05;;;;;;;10.45;4.30;;;;;;;;;;4895320;29;20036;-63
2021/12/20 11:11:35;;;;;;;9.75;3.63;;;;;;;;;;4895538;29;20548;-62
2021/12/20 11:14:03;;;;;;;11.82;4.38;;;;;;;;;;4895595;29;20028;-63
2021/12/20 11:16:34;;;;;;;9.77;4.28;;;;;;;;;;4895462;29;20040;-62
2021/12/20 11:19:16;;;;;;;4.72;2.53;;;;;;;;;;4895615;29;20071;-63
2021/12/20 11:21:47;;;;;;;10.85;4.20;;;;;;;;;;4894922;29;20032;-61
2021/12/20 11:24:14;;;;;;;6.07;3.50;;;;;;;;;;4893736;29;20139;-63
2021/12/20 11:26:40;;;;;;;11.07;4.07;;;;;;;;;;4895249;29;20021;-62
2021/12/20 11:29:07;;;;;;;5.78;2.80;;;;;;;;;;4895343;29;20056;-63
2021/12/20 11:31:33;;;;;;;3.78;1.83;;;;;;;;;;4894879;29;20389;-62
2021/12/20 11:34:02;;;;;;;5.47;2.58;;;;;;;;;;4895593;29;20745;-61
2021/12/20 11:36:28;;;;;;;15.88;7.47;;;;;;;;;;4895242;29;20079;-62
2021/12/20 11:38:58;;;;;;;20.00;10.02;;;;;;;;;;4895219;29;20076;-61
2021/12/20 11:41:24;;;;;;;19.60;7.88;;;;;;;;;;4895608;29;20498;-62
2021/12/20 11:43:50;;;;;;;18.42;8.43;;;;;;;;;;4895343;29;20033;-63
2021/12/20 11:46:16;;;;;;;13.77;8.35;;;;;;;;;;4897064;29;20397;-62
2021/12/20 11:48:43;;;;;;;9.95;5.85;;;;;;;;;;4901370;29;20028;-63
2021/12/20 11:51:09;;;;;;;6.05;2.97;;;;;;;;;;4917838;29;20031;-63
2021/12/20 11:53:36;;;;;;;6.97;4.20;;;;;;;;;;4917565;29;20396;-63
2021/12/20 11:56:03;;;;;;;8.20;3.88;;;;;;;;;;4917700;29;20040;-63
2021/12/20 11:58:30;;;;;;;13.60;5.75;;;;;;;;;;4917290;29;20748;-63
2021/12/20 12:00:56;;;;;;;11.00;4.68;;;;;;;;;;4916918;29;20060;-65
2021/12/20 12:03:24;;;;;;;12.63;4.68;;;;;;;;;;4917207;29;20036;-63
2021/12/20 12:05:54;;;;;;;8.90;3.88;;;;;;;;;;4917044;29;20506;-62
2021/12/20 12:08:41;;;;;;;12.38;5.47;;;;;;;;;;4917281;29;20958;-65
2021/12/20 12:11:07;;;;;;;13.35;4.53;;;;;;;;;;4917586;29;20032;-63
2021/12/20 12:14:02;;;;;;;9.77;4.07;;;;;;;;;;4917662;29;20039;-63
2021/12/20 12:16:47;;;;;;;6.65;3.40;;;;;;;;;;4910641;29;20048;-62
2021/12/20 12:19:33;;;;;;;11.90;3.78;;;;;;;;;;4917561;29;20044;-62
2021/12/20 12:21:59;;;;;;;14.50;5.10;;;;;;;;;;4906936;29;20033;-62
2021/12/20 12:24:44;;;;;;;12.20;4.40;;;;;;;;;;4897432;29;20072;-63
2021/12/20 12:27:21;;;;;;;9.82;4.40;;;;;;;;;;4895138;29;20477;-66
2021/12/20 12:30:07;;;;;;;7.65;3.45;;;;;;;;;;4895227;29;20040;-63
2021/12/20 12:32:33;;;;;;;7.75;3.33;;;;;;;;;;4898098;29;20024;-61
2021/12/20 12:34:59;;;;;;;5.53;2.30;;;;;;;;;;4897904;29;20455;-62
2021/12/20 12:37:34;;;;;;;7.90;3.17;;;;;;;;;;4898098;29;20235;-62
2021/12/20 12:40:19;;;;;;;9.52;3.35;;;;;;;;;;4897596;29;20036;-64
2021/12/20 12:42:47;;;;;;;8.25;3.53;;;;;;;;;;4897600;29;20021;-61
2021/12/20 12:45:16;;;;;;;4.55;2.08;;;;;;;;;;4897860;29;20029;-62
2021/12/20 12:47:42;;;;;;;5.68;3.15;;;;;;;;;;4897962;29;20035;-64
2021/12/20 12:50:24;;;;;;;8.07;3.20;;;;;;;;;;4897619;29;20032;-64
2021/12/20 12:52:50;;;;;;;10.25;3.80;;;;;;;;;;4897357;29;20093;-62
2021/12/20 12:55:26;;;;;;;7.50;2.95;;;;;;;;;;4897369;29;20424;-62
2021/12/20 12:57:52;;;;;;;9.20;2.80;;;;;;;;;;4897243;29;20029;-60
2021/12/20 13:00:37;;;;;;;8.65;2.63;;;;;;;;;;4896224;29;20029;-62
2021/12/20 13:03:12;;;;;;;11.93;4.07;;;;;;;;;;4897576;29;20060;-62
2021/12/20 13:05:38;;;;;;;11.55;4.75;;;;;;;;;;4897879;29;20043;-62
2021/12/20 13:08:04;;;;;;;15.25;5.28;;;;;;;;;;4897732;29;20025;-64
2021/12/20 13:10:39;;;;;;;12.60;4.85;;;;;;;;;;4897421;29;20397;-62
2021/12/20 13:13:11;;;;;;;9.98;3.80;;;;;;;;;;4897644;29;20159;-62
2021/12/20 13:15:52;;;;;;;10.07;3.40;;;;;;;;;;4897403;29;20028;-62
2021/12/20 13:18:27;;;;;;;12.57;4.30;;;;;;;;;;4897763;29;20045;-62
2021/12/20 13:23:20;;;;;;;25.83;10.18;;;;;;;;;;4896602;29;20072;-63
2021/12/20 13:26:17;;;;;;;20.13;10.15;;;;;;;;;;4896902;29;20516;-63
2021/12/20 13:28:44;;;;;;;16.80;7.00;;;;;;;;;;4894513;29;20040;-64
2021/12/20 13:31:14;;;;;;;7.05;3.55;;;;;;;;;;4895807;29;20495;-64
2021/12/20 13:33:42;;;;;;;15.10;6.97;;;;;;;;;;4895683;29;20040;-66
2021/12/20 13:36:17;;;;;;;13.50;5.32;;;;;;;;;;4895320;29;20043;-62
2021/12/20 13:38:43;;;;;;;7.80;3.72;;;;;;;;;;4892730;29;20507;-62
2021/12/20 13:41:10;;;;;;;7.68;3.40;;;;;;;;;;4895695;29;20034;-62
2021/12/20 13:43:47;;;;;;;10.35;4.38;;;;;;;;;;4895912;29;20036;-64
2021/12/20 13:46:17;;;;;;;14.63;6.25;;;;;;;;;;4895079;29;20040;-62
2021/12/20 13:48:49;;;;;;;11.82;5.15;;;;;;;;;;4895970;29;20021;-63
2021/12/20 13:51:15;;;;;;;9.82;3.80;;;;;;;;;;4892946;29;20029;-64
2021/12/20 13:53:41;;;;;;;9.90;4.25;;;;;;;;;;4896148;29;20027;-65
2021/12/20 13:56:07;;;;;;;10.65;4.10;;;;;;;;;;4896150;29;20468;-62
2021/12/20 13:58:34;;;;;;;11.15;5.15;;;;;;;;;;4896680;29;20028;-67
2021/12/20 14:01:00;;;;;;;11.52;4.68;;;;;;;;;;4895876;29;20093;-60
2021/12/20 14:03:26;;;;;;;11.93;5.18;;;;;;;;;;4893575;29;20044;-61
2021/12/20 14:05:53;;;;;;;11.07;4.25;;;;;;;;;;4894770;29;20036;-63
2021/12/20 14:08:22;;;;;;;10.13;4.25;;;;;;;;;;4893869;29;20028;-63
2021/12/20 14:10:48;;;;;;;11.93;4.97;;;;;;;;;;4895360;29;20062;-64
2021/12/20 14:13:18;;;;;;;15.77;5.35;;;;;;;;;;4895995;29;20029;-64
2021/12/20 14:15:46;;;;;;;10.65;4.50;;;;;;;;;;4896042;29;20040;-64
2021/12/20 14:18:11;;;;;;;10.35;5.38;;;;;;;;;;4896255;29;20081;-64
2021/12/20 14:20:45;;;;;;;11.68;3.72;;;;;;;;;;4896037;29;20024;-64
2021/12/20 14:23:17;;;;;;;8.85;3.67;;;;;;;;;;4895227;29;20192;-63
2021/12/20 14:25:48;;;;;;;16.30;6.30;;;;;;;;;;4896345;29;20096;-63
2021/12/20 14:28:14;;;;;;;12.82;4.97;;;;;;;;;;4895756;29;20028;-61
2021/12/20 14:30:47;;;;;;;9.55;4.55;;;;;;;;;;4897113;29;20552;-63
2021/12/20 14:33:27;;;;;;;13.38;5.53;;;;;;;;;;4894623;29;20032;-63
2021/12/20 14:35:54;;;;;;;8.50;4.07;;;;;;;;;;4893940;29;20035;-62
2021/12/20 14:38:28;;;;;;;16.23;5.72;;;;;;;;;;4894544;29;20025;-61
2021/12/20 14:40:54;;;;;;;14.73;4.95;;;;;;;;;;4892255;29;20035;-62
2021/12/20 14:43:22;;;;;;;8.75;4.38;;;;;;;;;;4894479;29;20025;-62
2021/12/20 14:46:07;;;;;;;11.80;5.78;;;;;;;;;;4894840;29;20028;-64
2021/12/20 14:48:40;;;;;;;9.35;4.30;;;;;;;;;;4891551;29;20029;-63
2021/12/20 14:51:13;;;;;;;9.95;4.53;;;;;;;;;;4895745;29;20036;-64
2021/12/20 14:53:39;;;;;;;9.00;4.60;;;;;;;;;;4895210;29;20048;-63
2021/12/20 14:56:07;;;;;;;18.08;6.68;;;;;;;;;;4895857;29;20033;-61
2021/12/20 14:58:33;;;;;;;12.13;5.03;;;;;;;;;;4891059;29;20032;-61
2021/12/20 15:01:01;;;;;;;12.70;5.80;;;;;;;;;;4906006;29;20032;-62
2021/12/20 15:03:27;;;;;;;12.55;5.38;;;;;;;;;;4912768;29;20035;-61
2021/12/20 15:06:03;;;;;;;14.10;5.93;;;;;;;;;;4913881;29;20059;-62
2021/12/20 15:08:29;;;;;;;14.25;6.18;;;;;;;;;;4913063;29;20035;-62
2021/12/20 15:10:55;;;;;;;12.50;6.30;;;;;;;;;;4906546;29;20502;-63
2021/12/20 15:13:22;;;;;;;11.73;5.68;;;;;;;;;;4913701;29;20024;-61
2021/12/20 15:15:48;;;;;;;14.25;6.15;;;;;;;;;;4913445;29;20047;-61
2021/12/20 15:18:14;;;;;;;13.63;6.38;;;;;;;;;;4913646;29;20527;-62
2021/12/20 15:20:40;;;;;;;10.95;4.70;;;;;;;;;;4914382;29;20477;-61
2021/12/20 15:23:06;;;;;;;8.02;4.18;;;;;;;;;;4916916;29;20083;-62
2021/12/20 15:25:32;;;;;;;9.30;4.60;;;;;;;;;;4918045;29;20071;-62
2021/12/20 15:27:58;;;;;;;8.50;3.78;;;;;;;;;;4917942;29;20099;-61
2021/12/20 15:30:25;;;;;;;13.40;6.32;;;;;;;;;;4915725;29;20036;-63
2021/12/20 15:32:53;;;;;;;15.88;6.68;;;;;;;;;;4918049;29;20031;-63
2021/12/20 15:35:20;;;;;;;13.82;7.22;;;;;;;;;;4917831;29;20032;-63
2021/12/20 15:37:46;;;;;;;15.98;6.70;;;;;;;;;;4917698;29;20103;-63
2021/12/20 15:40:13;;;;;;;13.93;7.00;;;;;;;;;;4917342;29;20024;-61
2021/12/20 15:42:57;;;;;;;14.63;5.15;;;;;;;;;;4916488;29;20119;-61
2021/12/20 15:45:23;;;;;;;11.32;5.10;;;;;;;;;;4915650;29;20597;-62
2021/12/20 15:47:49;;;;;;;16.15;6.25;;;;;;;;;;4917345;29;20756;-63
2021/12/20 15:50:15;;;;;;;7.70;3.13;;;;;;;;;;4917077;29;20024;-62
2021/12/20 15:52:41;;;;;;;15.65;6.65;;;;;;;;;;4916903;29;20036;-62
2021/12/20 15:55:07;;;;;;;14.90;6.80;;;;;;;;;;4917068;29;20091;-61
2021/12/20 15:57:33;;;;;;;14.10;5.13;;;;;;;;;;4917479;29;20028;-58
2021/12/20 16:00:00;;;;;;;11.63;4.57;;;;;;;;;;4916477;29;20103;-60
2021/12/20 16:02:27;;;;;;;10.45;4.40;;;;;;;;;;4917028;29;20056;-58
2021/12/20 16:04:53;;;;;;;11.68;4.85;;;;;;;;;;4917387;29;20060;-59
2021/12/20 16:07:19;;;;;;;10.88;4.53;;;;;;;;;;4917089;29;20076;-60
2021/12/20 16:09:45;;;;;;;10.90;4.75;;;;;;;;;;4915657;29;20043;-58
2021/12/20 16:12:12;;;;;;;18.42;4.57;;;;;;;;;;4917537;29;20068;-59
2021/12/20 16:14:38;;;;;;;13.02;4.40;;;;;;;;;;4917016;29;20112;-61
2021/12/20 16:17:05;;;;;;;11.32;4.25;;;;;;;;;;4916839;29;20036;-61
2021/12/20 16:19:31;;;;;;;15.07;4.70;;;;;;;;;;4916915;29;20096;-59
2021/12/20 16:21:57;;;;;;;12.63;4.35;;;;;;;;;;4916756;29;20080;-61
2021/12/20 16:24:25;;;;;;;11.43;3.92;;;;;;;;;;4916697;29;20472;-60
2021/12/20 16:26:51;;;;;;;5.72;2.60;;;;;;;;;;4917393;29;20078;-60
2021/12/20 16:29:17;;;;;;;7.47;3.53;;;;;;;;;;4915347;29;20036;-62
2021/12/20 16:31:44;;;;;;;6.18;3.20;;;;;;;;;;4915643;29;20040;-60
2021/12/20 16:34:10;;;;;;;7.72;3.35;;;;;;;;;;4916595;29;20028;-63
2021/12/20 16:36:36;;;;;;;11.13;3.50;;;;;;;;;;4916027;29;20431;-64
2021/12/20 16:39:04;;;;;;;8.45;3.55;;;;;;;;;;4915557;29;20087;-65
2021/12/20 16:41:31;;;;;;;9.27;3.70;;;;;;;;;;4916451;29;20032;-65
2021/12/20 16:43:58;;;;;;;8.70;3.15;;;;;;;;;;4916790;29;20032;-61
2021/12/20 16:46:24;;;;;;;6.80;3.13;;;;;;;;;;4916221;29;20111;-63
2021/12/20 16:48:56;;;;;;;7.05;3.50;;;;;;;;;;4916646;29;20031;-64
2021/12/20 16:51:22;;;;;;;10.07;4.60;;;;;;;;;;4916431;29;20594;-63
2021/12/20 16:53:51;;;;;;;8.93;3.65;;;;;;;;;;4915698;29;20478;-62
2021/12/20 16:56:18;;;;;;;8.82;3.67;;;;;;;;;;4916451;29;20075;-64
2021/12/20 16:58:44;;;;;;;8.00;3.17;;;;;;;;;;4916053;29;20035;-65
2021/12/20 17:01:11;;;;;;;9.75;4.32;;;;;;;;;;4915833;29;20032;-64
2021/12/20 17:04:14;;;;;;;7.10;3.13;;;;;;;;;;4916067;29;20102;-62
2021/12/20 17:06:35;;;;;;;5.38;3.15;;;;;;;;;;4915582;29;20631;-62
2021/12/20 17:09:01;;;;;;;8.27;2.80;;;;;;;;;;4916010;29;20032;-63
2021/12/20 17:11:27;;;;;;;14.52;5.50;;;;;;;;;;4915654;29;20333;-61
2021/12/20 17:13:53;;;;;;;11.07;4.80;;;;;;;;;;4915202;29;20030;-62
2021/12/20 17:16:22;;;;;;;12.65;5.13;;;;;;;;;;4914422;29;20055;-62
2021/12/20 17:18:49;;;;;;;11.48;4.90;;;;;;;;;;4915885;29;20028;-62
2021/12/20 17:21:15;;;;;;;10.63;3.80;;;;;;;;;;4915259;29;20024;-62
2021/12/20 17:23:43;;;;;;;11.82;3.40;;;;;;;;;;4915589;29;20095;-63
2021/12/20 17:26:09;;;;;;;6.75;3.03;;;;;;;;;;4915882;29;20036;-61
2021/12/20 17:28:37;;;;;;;7.28;3.97;;;;;;;;;;4915528;29;20032;-61
2021/12/20 17:31:03;;;;;;;6.25;2.63;;;;;;;;;;4915746;29;20032;-62
2021/12/20 17:33:29;;;;;;;7.95;3.65;;;;;;;;;;4915952;29;20499;-61
2021/12/20 17:35:55;;;;;;;8.38;3.30;;;;;;;;;;4915625;29;20111;-64
2021/12/20 17:38:21;;;;;;;8.63;3.20;;;;;;;;;;4915479;29;20028;-63
2021/12/20 17:40:47;;;;;;;6.60;3.03;;;;;;;;;;4915149;29;20032;-63
2021/12/20 17:43:13;;;;;;;11.00;3.45;;;;;;;;;;4915637;29;20024;-62
2021/12/20 17:45:39;;;;;;;10.77;3.88;;;;;;;;;;4913132;29;20091;-63
2021/12/20 17:48:05;;;;;;;10.32;5.88;;;;;;;;;;4916127;29;20021;-64
2021/12/20 17:50:34;;;;;;;9.20;4.38;;;;;;;;;;4915494;29;20132;-66
2021/12/20 17:53:00;;;;;;;10.52;4.38;;;;;;;;;;4915050;29;20039;-63
2021/12/20 17:55:26;;;;;;;9.38;4.38;;;;;;;;;;4915269;29;20043;-62
2021/12/20 17:57:52;;;;;;;9.02;3.50;;;;;;;;;;4915550;29;20099;-62
2021/12/20 18:00:20;;;;;;;10.70;4.63;;;;;;;;;;4914511;29;20039;-64
2021/12/20 18:02:46;;;;;;;11.48;5.18;;;;;;;;;;4915218;29;20068;-63
2021/12/20 18:05:13;;;;;;;6.88;3.47;;;;;;;;;;4915251;29;20047;-62
2021/12/20 18:07:41;;;;;;;11.30;4.70;;;;;;;;;;4915003;29;20028;-62
2021/12/20 18:10:07;;;;;;;9.00;4.32;;;;;;;;;;4915382;29;20047;-62
2021/12/20 18:12:33;;;;;;;9.73;3.97;;;;;;;;;;4915167;29;20067;-62
2021/12/20 18:15:00;;;;;;;7.75;3.50;;;;;;;;;;4914630;29;20052;-63
2021/12/20 18:17:26;;;;;;;10.43;3.80;;;;;;;;;;4913579;29;20807;-62
2021/12/20 18:19:52;;;;;;;14.20;5.57;;;;;;;;;;4915259;29;20032;-62
2021/12/20 18:22:19;;;;;;;13.27;4.55;;;;;;;;;;4914411;29;20044;-62
2021/12/20 18:24:45;;;;;;;11.95;5.13;;;;;;;;;;4914943;29;20131;-63
2021/12/20 18:27:12;;;;;;;10.00;3.92;;;;;;;;;;4914790;29;20028;-63
2021/12/20 18:29:38;;;;;;;7.60;3.83;;;;;;;;;;4914027;29;20028;-62
2021/12/20 18:32:07;;;;;;;10.30;3.35;;;;;;;;;;4912927;29;20052;-62
2021/12/20 18:34:33;;;;;;;9.10;3.97;;;;;;;;;;4914938;29;20035;-62
2021/12/20 18:36:59;;;;;;;17.08;8.02;;;;;;;;;;4914521;29;20031;-62
2021/12/20 18:39:28;;;;;;;8.48;4.07;;;;;;;;;;4914504;29;20055;-61
2021/12/20 18:41:56;;;;;;;7.78;3.45;;;;;;;;;;4914191;29;20540;-62
2021/12/20 18:44:23;;;;;;;10.35;3.97;;;;;;;;;;4914325;29;20075;-61
2021/12/20 18:46:51;;;;;;;11.18;3.88;;;;;;;;;;4914586;29;20051;-62
2021/12/20 18:49:18;;;;;;;10.73;3.90;;;;;;;;;;4914583;29;20071;-62
2021/12/20 18:51:44;;;;;;;7.85;3.95;;;;;;;;;;4914159;29;20036;-62
2021/12/20 18:54:10;;;;;;;7.68;3.75;;;;;;;;;;4914056;29;20028;-61
2021/12/20 18:56:38;;;;;;;11.98;4.63;;;;;;;;;;4914371;29;20055;-61
2021/12/20 18:59:04;;;;;;;9.57;3.60;;;;;;;;;;4913572;29;20035;-65
2021/12/20 19:01:30;;;;;;;9.05;3.38;;;;;;;;;;4914274;29;20361;-64
2021/12/20 19:03:57;;;;;;;6.95;3.50;;;;;;;;;;4914480;29;20044;-63
2021/12/20 19:06:29;;;;;;;6.00;3.00;;;;;;;;;;4914004;29;20215;-64
2021/12/20 19:08:55;;;;;;;9.00;3.47;;;;;;;;;;4913759;29;20043;-63
2021/12/20 19:14:04;;;;;;;7.03;3.22;;;;;;;;;;4914050;29;20046;-63
2021/12/20 19:16:30;;;;;;;8.65;3.92;;;;;;;;;;4914224;29;20043;-63
2021/12/20 19:18:58;;;;;;;10.73;4.55;;;;;;;;;;4913740;29;20202;-63
2021/12/20 19:21:26;;;;;;;8.57;4.28;;;;;;;;;;4913620;29;20031;-62
2021/12/20 19:23:52;;;;;;;7.70;3.80;;;;;;;;;;4913700;29;20048;-62
2021/12/20 19:26:18;;;;;;;9.38;4.60;;;;;;;;;;4913983;29;20050;-63
2021/12/20 19:28:44;;;;;;;10.82;5.03;;;;;;;;;;4913217;29;20035;-63
2021/12/20 19:31:10;;;;;;;12.65;4.70;;;;;;;;;;4913936;29;20028;-63
2021/12/20 19:33:36;;;;;;;11.25;4.60;;;;;;;;;;4912267;29;20051;-64
2021/12/20 19:36:02;;;;;;;9.85;4.90;;;;;;;;;;4913411;29;20086;-62
2021/12/20 19:38:29;;;;;;;10.27;5.20;;;;;;;;;;4914033;29;20028;-63
2021/12/20 19:40:55;;;;;;;11.90;5.28;;;;;;;;;;4913885;29;20028;-63
2021/12/20 19:43:24;;;;;;;16.95;6.40;;;;;;;;;;4912960;29;20031;-62
2021/12/20 19:45:50;;;;;;;13.23;5.82;;;;;;;;;;4914321;29;20448;-64
2021/12/20 19:48:18;;;;;;;15.57;6.55;;;;;;;;;;4913864;29;20063;-63
2021/12/20 19:50:44;;;;;;;14.32;5.88;;;;;;;;;;4912189;29;20032;-61
2021/12/20 19:53:10;;;;;;;9.50;4.68;;;;;;;;;;4913232;29;20047;-63
2021/12/20 19:55:39;;;;;;;8.45;3.88;;;;;;;;;;4913701;29;20040;-63
2021/12/20 19:58:06;;;;;;;9.90;4.78;;;;;;;;;;4913455;29;20028;-64
2021/12/20 20:00:32;;;;;;;9.57;5.07;;;;;;;;;;4913916;29;20038;-62
2021/12/20 20:02:58;;;;;;;12.52;5.82;;;;;;;;;;4913417;29;20059;-64
2021/12/20 20:05:25;;;;;;;11.75;5.80;;;;;;;;;;4913310;29;20107;-62
2021/12/20 20:07:52;;;;;;;18.02;7.40;;;;;;;;;;4916188;29;20511;-63
2021/12/20 20:10:20;;;;;;;14.40;5.70;;;;;;;;;;4917239;29;20148;-65
2021/12/20 20:12:47;;;;;;;10.48;5.32;;;;;;;;;;4916454;29;20158;-62
2021/12/20 20:15:13;;;;;;;13.90;5.47;;;;;;;;;;4917289;29;20040;-63
2021/12/20 20:17:39;;;;;;;12.43;5.75;;;;;;;;;;4916549;29;20362;-63
2021/12/20 20:20:06;;;;;;;13.13;5.85;;;;;;;;;;4916808;29;20057;-62
2021/12/20 20:22:32;;;;;;;13.13;5.90;;;;;;;;;;4916670;29;20043;-62
2021/12/20 20:24:59;;;;;;;13.45;5.05;;;;;;;;;;4916966;29;20032;-61
2021/12/20 20:27:29;;;;;;;15.15;5.32;;;;;;;;;;4916187;29;20061;-64
2021/12/20 20:29:55;;;;;;;11.55;4.32;;;;;;;;;;4916819;29;20024;-62
2021/12/20 20:32:22;;;;;;;11.95;4.78;;;;;;;;;;4916911;29;20127;-63
2021/12/20 20:34:48;;;;;;;8.73;4.20;;;;;;;;;;4915810;29;20052;-64
2021/12/20 20:37:14;;;;;;;6.88;3.90;;;;;;;;;;4917042;29;20032;-62
2021/12/20 20:39:41;;;;;;;6.75;2.95;;;;;;;;;;4916926;29;20044;-61
2021/12/20 20:42:08;;;;;;;6.72;3.10;;;;;;;;;;4899841;29;20064;-61
2021/12/20 20:44:34;;;;;;;8.38;3.33;;;;;;;;;;4896647;29;20066;-61
2021/12/20 20:47:02;;;;;;;6.03;2.78;;;;;;;;;;4896385;29;20025;-62
2021/12/20 20:49:30;;;;;;;7.93;3.08;;;;;;;;;;4896349;29;20085;-63
2021/12/20 20:51:56;;;;;;;9.88;3.75;;;;;;;;;;4897062;29;20025;-63
2021/12/20 20:54:22;;;;;;;8.07;3.42;;;;;;;;;;4897087;29;20039;-62
2021/12/20 20:56:48;;;;;;;7.50;3.00;;;;;;;;;;4895946;29;20053;-62
2021/12/20 20:59:14;;;;;;;10.75;3.88;;;;;;;;;;4897043;29;20414;-64
2021/12/20 21:01:40;;;;;;;15.35;5.28;;;;;;;;;;4897627;29;20059;-65
2021/12/20 21:04:06;;;;;;;10.52;4.93;;;;;;;;;;4897649;29;20416;-64
2021/12/20 21:06:34;;;;;;;9.63;4.25;;;;;;;;;;4897775;29;20401;-63
2021/12/20 21:09:02;;;;;;;9.93;4.30;;;;;;;;;;4910655;29;20028;-63
2021/12/20 21:11:31;;;;;;;10.65;4.55;;;;;;;;;;4914907;29;20365;-64
2021/12/20 21:13:58;;;;;;;15.98;5.82;;;;;;;;;;4916345;29;20047;-63
2021/12/20 21:16:24;;;;;;;9.52;4.53;;;;;;;;;;4916540;29;20044;-64
2021/12/20 21:18:50;;;;;;;10.48;5.00;;;;;;;;;;4916012;29;20088;-63
2021/12/20 21:21:16;;;;;;;12.50;5.20;;;;;;;;;;4905558;29;20037;-64
2021/12/20 21:23:43;;;;;;;10.57;5.18;;;;;;;;;;4896847;29;20056;-63
2021/12/20 21:26:09;;;;;;;10.45;5.28;;;;;;;;;;4897372;29;20053;-63
2021/12/20 21:28:35;;;;;;;11.48;5.28;;;;;;;;;;4897606;29;20104;-66
2021/12/20 21:31:02;;;;;;;8.18;4.25;;;;;;;;;;4897527;29;20037;-64
2021/12/20 21:33:28;;;;;;;11.85;4.65;;;;;;;;;;4897538;29;20073;-64
2021/12/20 21:35:54;;;;;;;9.15;4.43;;;;;;;;;;4896739;29;20045;-65
2021/12/20 21:38:20;;;;;;;9.93;4.30;;;;;;;;;;4895240;29;20032;-63
2021/12/20 21:40:47;;;;;;;7.93;3.97;;;;;;;;;;4895530;29;20037;-64
2021/12/20 21:43:13;;;;;;;7.38;3.90;;;;;;;;;;4896871;29;20028;-65
2021/12/20 21:45:40;;;;;;;11.38;4.90;;;;;;;;;;4896143;29;20039;-64
2021/12/20 21:48:07;;;;;;;10.48;5.00;;;;;;;;;;4896136;29;20029;-64
2021/12/20 21:50:33;;;;;;;13.32;5.43;;;;;;;;;;4896819;29;20037;-65
2021/12/20 21:52:59;;;;;;;9.55;5.28;;;;;;;;;;4896712;29;20040;-64
2021/12/20 21:55:25;;;;;;;12.15;5.75;;;;;;;;;;4895789;29;20485;-63
2021/12/20 21:57:51;;;;;;;12.50;5.47;;;;;;;;;;4895311;29;20064;-63
2021/12/20 22:00:17;;;;;;;12.13;5.45;;;;;;;;;;4895836;29;20099;-63
2021/12/20 22:02:46;;;;;;;9.77;4.72;;;;;;;;;;4895669;29;20032;-62
2021/12/20 22:05:13;;;;;;;9.45;4.72;;;;;;;;;;4895256;29;20492;-62
2021/12/20 22:07:39;;;;;;;12.48;4.50;;;;;;;;;;4895587;29;20028;-63
2021/12/20 22:10:08;;;;;;;9.70;4.72;;;;;;;;;;4913451;29;20495;-62
2021/12/20 22:12:34;;;;;;;9.15;4.60;;;;;;;;;;4915133;29;20025;-63